Terminal Aerodrome Forecast
Issued by NWS

Home | Current Version | Previous Version | Text Only | Print | Product List | Glossary On
Versions: 1 2 3 4 5 6 7 8 9 10 11 12 13 14 15 16 17 18 19 20 21
000
FTAK31 PAJN 241700
TAFAYA
TAF
PAYA 241720Z 2418/2518 12005KT 5SM -SHRA SCT005 BKN015 OVC025
     FM242100 22005KT P6SM -SHRA SCT015 BKN025 OVC035
     FM250400 00000KT P6SM VCSH BKN050
     FM251200 00000KT P6SM BKN100
      AMD LTD TO CLD VIS AND WIND 2501/2510=

USA.gov is the U.S. government's official web portal to all federal, state and local government web resources and services.